Wellsburg, Iowa
Current Conditions -  °F | °C
As of 9:15 AM on Thursday 23 Oct 2014 (Local Time) from KIFA Reporting Station
Overcast Overcast  
Wind Chill: 48°   Ceiling: 700
Heat Index: 49°   Visibility: 10mi
Dew Point: 48°   Wind: 5mph
Humidity: 96%   Direction: 160°SSE
Pressure: 30.04"   Gusts: NA
Location:  42.46°N, 92.94°W
Report Text: KIFA 231415Z AUTO 16004KT 10SM OVC007 10/09 A3004 RMK AO2 T00960090
Loading
Personal Weather Stations






























Interactive Weather Map
Tropical Storm Tracking
New forecast layout! Learn more

10-Day Weather Forecast

Advertisements
Track Severe Weather on mobile